sensor_id;sensor_type;location;lat;lon;timestamp;pressure;altitude;pressure_sealevel;temperature;humidity
72585;BME280;60618;40.084;32.908;2023-04-21T00:02:20;89002.28;;;9.05;63.03
72585;BME280;60618;40.084;32.908;2023-04-21T00:04:47;89010.97;;;9.06;63.67
72585;BME280;60618;40.084;32.908;2023-04-21T00:07:14;89000.31;;;9.00;63.75
72585;BME280;60618;40.084;32.908;2023-04-21T00:09:41;89004.97;;;9.11;63.53
72585;BME280;60618;40.084;32.908;2023-04-21T00:12:08;89004.94;;;9.05;63.72
72585;BME280;60618;40.084;32.908;2023-04-21T00:14:35;89002.06;;;9.09;63.70
72585;BME280;60618;40.084;32.908;2023-04-21T00:17:02;88996.22;;;9.05;63.30
72585;BME280;60618;40.084;32.908;2023-04-21T00:19:29;88998.50;;;9.18;63.24
72585;BME280;60618;40.084;32.908;2023-04-21T00:21:56;88999.72;;;9.22;63.19
72585;BME280;60618;40.084;32.908;2023-04-21T00:24:24;89000.06;;;9.35;62.75
72585;BME280;60618;40.084;32.908;2023-04-21T00:26:51;88995.66;;;9.32;62.04
72585;BME280;60618;40.084;32.908;2023-04-21T00:29:18;89001.22;;;9.34;61.99
72585;BME280;60618;40.084;32.908;2023-04-21T00:31:45;88998.03;;;9.25;62.96
72585;BME280;60618;40.084;32.908;2023-04-21T00:34:12;88991.75;;;9.22;62.24
72585;BME280;60618;40.084;32.908;2023-04-21T00:36:38;88995.38;;;9.25;61.85
72585;BME280;60618;40.084;32.908;2023-04-21T00:39:05;88995.66;;;9.27;62.28
72585;BME280;60618;40.084;32.908;2023-04-21T00:41:33;88996.63;;;9.29;61.58
72585;BME280;60618;40.084;32.908;2023-04-21T00:44:05;88991.81;;;9.33;61.64
72585;BME280;60618;40.084;32.908;2023-04-21T00:46:33;88994.72;;;9.35;61.46
72585;BME280;60618;40.084;32.908;2023-04-21T00:49:03;88991.59;;;9.37;60.93
72585;BME280;60618;40.084;32.908;2023-04-21T00:51:31;88992.56;;;9.39;60.79
72585;BME280;60618;40.084;32.908;2023-04-21T00:54:00;88989.72;;;9.49;60.42
72585;BME280;60618;40.084;32.908;2023-04-21T00:56:30;88986.56;;;9.45;60.70
72585;BME280;60618;40.084;32.908;2023-04-21T00:58:58;88989.22;;;9.45;60.98
72585;BME280;60618;40.084;32.908;2023-04-21T01:01:26;88994.97;;;9.37;61.20
72585;BME280;60618;40.084;32.908;2023-04-21T01:03:53;88990.88;;;9.42;61.16
72585;BME280;60618;40.084;32.908;2023-04-21T01:06:20;88980.53;;;9.50;60.68
72585;BME280;60618;40.084;32.908;2023-04-21T01:08:47;88982.66;;;9.40;60.50
72585;BME280;60618;40.084;32.908;2023-04-21T01:11:14;88971.06;;;9.43;60.78
72585;BME280;60618;40.084;32.908;2023-04-21T01:13:41;88980.25;;;9.42;61.26
72585;BME280;60618;40.084;32.908;2023-04-21T01:16:07;88976.59;;;9.34;61.72
72585;BME280;60618;40.084;32.908;2023-04-21T01:18:34;88973.94;;;9.34;61.26
72585;BME280;60618;40.084;32.908;2023-04-21T01:21:02;88971.22;;;9.17;61.84
72585;BME280;60618;40.084;32.908;2023-04-21T01:23:29;88979.19;;;9.23;61.52
72585;BME280;60618;40.084;32.908;2023-04-21T01:25:56;88966.19;;;9.30;61.52
72585;BME280;60618;40.084;32.908;2023-04-21T01:28:24;88968.16;;;9.35;61.46
72585;BME280;60618;40.084;32.908;2023-04-21T01:30:51;88957.25;;;9.28;60.82
72585;BME280;60618;40.084;32.908;2023-04-21T01:33:19;88954.97;;;8.09;64.95
72585;BME280;60618;40.084;32.908;2023-04-21T01:35:47;88959.34;;;7.46;69.10
72585;BME280;60618;40.084;32.908;2023-04-21T01:38:14;88962.91;;;7.37;70.12
72585;BME280;60618;40.084;32.908;2023-04-21T01:40:47;88967.25;;;7.40;70.10
72585;BME280;60618;40.084;32.908;2023-04-21T01:43:16;88960.09;;;7.05;71.60
72585;BME280;60618;40.084;32.908;2023-04-21T01:45:43;88968.03;;;7.05;71.69
72585;BME280;60618;40.084;32.908;2023-04-21T01:48:10;88962.22;;;7.22;70.08
72585;BME280;60618;40.084;32.908;2023-04-21T01:50:37;88960.31;;;7.22;70.26
72585;BME280;60618;40.084;32.908;2023-04-21T01:53:04;88956.31;;;7.32;69.95
72585;BME280;60618;40.084;32.908;2023-04-21T01:55:31;88945.94;;;7.29;70.21
72585;BME280;60618;40.084;32.908;2023-04-21T01:57:58;88950.56;;;7.34;69.80
72585;BME280;60618;40.084;32.908;2023-04-21T02:00:25;88931.34;;;7.19;70.63
72585;BME280;60618;40.084;32.908;2023-04-21T02:02:52;88941.16;;;6.92;71.41
72585;BME280;60618;40.084;32.908;2023-04-21T02:05:19;88946.16;;;6.90;72.01
72585;BME280;60618;40.084;32.908;2023-04-21T02:07:46;88940.53;;;6.82;72.62
72585;BME280;60618;40.084;32.908;2023-04-21T02:10:13;88933.72;;;6.76;72.85
72585;BME280;60618;40.084;32.908;2023-04-21T02:12:40;88937.41;;;6.64;73.99
72585;BME280;60618;40.084;32.908;2023-04-21T02:15:07;88931.44;;;6.48;74.21
72585;BME280;60618;40.084;32.908;2023-04-21T02:17:34;88928.13;;;6.53;73.65
72585;BME280;60618;40.084;32.908;2023-04-21T02:20:01;88928.44;;;6.76;72.47
72585;BME280;60618;40.084;32.908;2023-04-21T02:22:29;88929.81;;;6.92;72.67
72585;BME280;60618;40.084;32.908;2023-04-21T02:24:56;88931.81;;;6.97;72.18
72585;BME280;60618;40.084;32.908;2023-04-21T02:27:23;88925.47;;;7.09;71.21
72585;BME280;60618;40.084;32.908;2023-04-21T02:29:50;88934.22;;;7.15;71.33
72585;BME280;60618;40.084;32.908;2023-04-21T02:32:17;88934.28;;;7.21;71.60
72585;BME280;60618;40.084;32.908;2023-04-21T02:34:51;88934.28;;;7.21;70.95
72585;BME280;60618;40.084;32.908;2023-04-21T02:37:19;88951.25;;;7.29;70.82
72585;BME280;60618;40.084;32.908;2023-04-21T02:39:46;88943.34;;;7.34;70.11
72585;BME280;60618;40.084;32.908;2023-04-21T02:42:13;88943.88;;;7.38;70.47
72585;BME280;60618;40.084;32.908;2023-04-21T02:44:40;88936.44;;;7.43;70.03
72585;BME280;60618;40.084;32.908;2023-04-21T02:47:06;88936.41;;;7.37;70.27
72585;BME280;60618;40.084;32.908;2023-04-21T02:49:33;88937.94;;;7.03;71.51
72585;BME280;60618;40.084;32.908;2023-04-21T02:52:00;88936.78;;;7.09;71.31
72585;BME280;60618;40.084;32.908;2023-04-21T02:54:27;88937.78;;;7.12;70.86
72585;BME280;60618;40.084;32.908;2023-04-21T02:56:54;88935.19;;;7.18;71.22
72585;BME280;60618;40.084;32.908;2023-04-21T02:59:21;88929.19;;;6.97;71.91
72585;BME280;60618;40.084;32.908;2023-04-21T03:01:48;88932.69;;;6.88;72.55
72585;BME280;60618;40.084;32.908;2023-04-21T03:04:15;88940.72;;;6.44;74.51
72585;BME280;60618;40.084;32.908;2023-04-21T03:06:42;88946.41;;;5.92;77.50
72585;BME280;60618;40.084;32.908;2023-04-21T03:09:09;88939.28;;;5.69;78.80
72585;BME280;60618;40.084;32.908;2023-04-21T03:11:36;88947.06;;;5.34;80.91
72585;BME280;60618;40.084;32.908;2023-04-21T03:14:03;88949.03;;;5.24;81.62
72585;BME280;60618;40.084;32.908;2023-04-21T03:16:30;88946.16;;;5.37;81.26
72585;BME280;60618;40.084;32.908;2023-04-21T03:18:57;88958.38;;;5.49;81.27
72585;BME280;60618;40.084;32.908;2023-04-21T03:21:23;88958.63;;;5.36;81.73
72585;BME280;60618;40.084;32.908;2023-04-21T03:23:52;88960.31;;;5.49;81.83
72585;BME280;60618;40.084;32.908;2023-04-21T03:26:18;88969.59;;;5.74;81.35
72585;BME280;60618;40.084;32.908;2023-04-21T03:28:45;88973.59;;;6.08;79.36
72585;BME280;60618;40.084;32.908;2023-04-21T03:31:12;88972.81;;;6.51;78.04
72585;BME280;60618;40.084;32.908;2023-04-21T03:33:39;88981.25;;;6.85;76.78
72585;BME280;60618;40.084;32.908;2023-04-21T03:36:06;88977.03;;;6.93;76.43
72585;BME280;60618;40.084;32.908;2023-04-21T03:38:33;88977.31;;;6.80;76.76
72585;BME280;60618;40.084;32.908;2023-04-21T03:41:02;88980.03;;;6.51;77.42
72585;BME280;60618;40.084;32.908;2023-04-21T03:43:29;88974.13;;;6.41;78.13
72585;BME280;60618;40.084;32.908;2023-04-21T03:45:56;88983.22;;;6.11;79.60
72585;BME280;60618;40.084;32.908;2023-04-21T03:48:23;88986.34;;;5.94;80.92
72585;BME280;60618;40.084;32.908;2023-04-21T03:50:50;88983.13;;;5.90;81.27
72585;BME280;60618;40.084;32.908;2023-04-21T03:53:16;88983.31;;;6.02;82.12
72585;BME280;60618;40.084;32.908;2023-04-21T03:55:43;88987.91;;;6.16;81.12
72585;BME280;60618;40.084;32.908;2023-04-21T03:58:10;88988.16;;;6.18;81.86
72585;BME280;60618;40.084;32.908;2023-04-21T04:00:37;88976.31;;;6.28;80.98
72585;BME280;60618;40.084;32.908;2023-04-21T04:03:04;88984.50;;;6.45;80.54
72585;BME280;60618;40.084;32.908;2023-04-21T04:05:31;88986.47;;;6.65;80.31
72585;BME280;60618;40.084;32.908;2023-04-21T04:07:58;88991.25;;;6.96;79.25
72585;BME280;60618;40.084;32.908;2023-04-21T04:10:25;88992.88;;;7.28;77.58
72585;BME280;60618;40.084;32.908;2023-04-21T04:12:52;88993.09;;;7.65;76.62
72585;BME280;60618;40.084;32.908;2023-04-21T04:15:19;88997.81;;;8.02;76.39
72585;BME280;60618;40.084;32.908;2023-04-21T04:17:46;89000.72;;;8.30;73.81
72585;BME280;60618;40.084;32.908;2023-04-21T04:20:13;89005.94;;;8.45;73.77
72585;BME280;60618;40.084;32.908;2023-04-21T04:22:39;88995.84;;;8.49;71.84
72585;BME280;60618;40.084;32.908;2023-04-21T04:25:06;88995.34;;;8.45;73.57
72585;BME280;60618;40.084;32.908;2023-04-21T04:27:34;89003.97;;;8.71;72.35
72585;BME280;60618;40.084;32.908;2023-04-21T04:30:01;89010.91;;;8.95;70.57
72585;BME280;60618;40.084;32.908;2023-04-21T04:32:27;89007.41;;;9.15;70.96
72585;BME280;60618;40.084;32.908;2023-04-21T04:34:54;89010.69;;;9.35;68.90
72585;BME280;60618;40.084;32.908;2023-04-21T04:37:21;89006.91;;;9.53;67.80
72585;BME280;60618;40.084;32.908;2023-04-21T04:39:52;89013.84;;;9.02;71.23
72585;BME280;60618;40.084;32.908;2023-04-21T04:42:19;89024.44;;;8.65;72.61
72585;BME280;60618;40.084;32.908;2023-04-21T04:44:46;89017.63;;;8.59;74.12
72585;BME280;60618;40.084;32.908;2023-04-21T04:47:13;89018.44;;;8.70;73.29
72585;BME280;60618;40.084;32.908;2023-04-21T04:49:39;89010.56;;;8.81;71.62
72585;BME280;60618;40.084;32.908;2023-04-21T04:52:06;89020.50;;;8.55;72.02
72585;BME280;60618;40.084;32.908;2023-04-21T04:54:33;89020.00;;;8.31;73.70
72585;BME280;60618;40.084;32.908;2023-04-21T04:57:00;89012.94;;;8.22;72.99
72585;BME280;60618;40.084;32.908;2023-04-21T04:59:27;89017.91;;;8.35;71.85
72585;BME280;60618;40.084;32.908;2023-04-21T05:01:56;89015.13;;;8.23;73.69
72585;BME280;60618;40.084;32.908;2023-04-21T05:04:23;89018.09;;;8.31;72.48
72585;BME280;60618;40.084;32.908;2023-04-21T05:06:50;89018.19;;;8.37;72.34
72585;BME280;60618;40.084;32.908;2023-04-21T05:09:17;89024.97;;;8.43;72.45
72585;BME280;60618;40.084;32.908;2023-04-21T05:11:44;89023.16;;;8.87;73.24
72585;BME280;60618;40.084;32.908;2023-04-21T05:14:11;89024.47;;;9.39;70.48
72585;BME280;60618;40.084;32.908;2023-04-21T05:16:38;89023.19;;;9.72;69.37
72585;BME280;60618;40.084;32.908;2023-04-21T05:19:05;89021.56;;;9.43;68.16
72585;BME280;60618;40.084;32.908;2023-04-21T05:21:32;89027.31;;;9.30;68.60
72585;BME280;60618;40.084;32.908;2023-04-21T05:23:59;89036.03;;;9.36;69.46
72585;BME280;60618;40.084;32.908;2023-04-21T05:26:27;89030.88;;;9.70;68.20
72585;BME280;60618;40.084;32.908;2023-04-21T05:28:55;89027.34;;;9.90;67.44
72585;BME280;60618;40.084;32.908;2023-04-21T05:31:25;89022.03;;;9.90;67.30
72585;BME280;60618;40.084;32.908;2023-04-21T05:33:52;89021.22;;;10.27;66.42
72585;BME280;60618;40.084;32.908;2023-04-21T05:36:19;89030.69;;;10.56;64.88
72585;BME280;60618;40.084;32.908;2023-04-21T05:38:46;89023.22;;;10.82;63.98
72585;BME280;60618;40.084;32.908;2023-04-21T05:41:13;89036.78;;;10.84;63.87
72585;BME280;60618;40.084;32.908;2023-04-21T05:43:40;89022.22;;;10.51;64.55
72585;BME280;60618;40.084;32.908;2023-04-21T05:46:08;89029.31;;;10.01;65.39
72585;BME280;60618;40.084;32.908;2023-04-21T05:48:35;89029.53;;;9.91;67.16
72585;BME280;60618;40.084;32.908;2023-04-21T05:51:12;89032.69;;;9.95;67.03
72585;BME280;60618;40.084;32.908;2023-04-21T05:53:40;89033.31;;;10.39;64.43
72585;BME280;60618;40.084;32.908;2023-04-21T05:56:08;89032.66;;;10.72;64.31
72585;BME280;60618;40.084;32.908;2023-04-21T05:58:36;89029.50;;;10.90;62.18
72585;BME280;60618;40.084;32.908;2023-04-21T06:01:03;89036.78;;;10.90;62.47
72585;BME280;60618;40.084;32.908;2023-04-21T06:03:31;89025.38;;;10.56;61.35
72585;BME280;60618;40.084;32.908;2023-04-21T06:05:59;89028.97;;;10.47;63.34
72585;BME280;60618;40.084;32.908;2023-04-21T06:08:27;89033.59;;;10.46;63.80
72585;BME280;60618;40.084;32.908;2023-04-21T06:10:54;89036.59;;;10.06;65.43
72585;BME280;60618;40.084;32.908;2023-04-21T06:13:20;89031.44;;;9.85;66.90
72585;BME280;60618;40.084;32.908;2023-04-21T06:15:48;89038.22;;;9.81;67.02
72585;BME280;60618;40.084;32.908;2023-04-21T06:18:15;89030.47;;;9.83;65.82
72585;BME280;60618;40.084;32.908;2023-04-21T06:20:42;89026.94;;;10.08;65.71
72585;BME280;60618;40.084;32.908;2023-04-21T06:23:15;89035.72;;;10.31;64.53
72585;BME280;60618;40.084;32.908;2023-04-21T06:25:42;89036.97;;;10.36;65.30
72585;BME280;60618;40.084;32.908;2023-04-21T06:28:09;89034.03;;;10.28;65.08
72585;BME280;60618;40.084;32.908;2023-04-21T06:30:36;89034.41;;;9.99;66.25
72585;BME280;60618;40.084;32.908;2023-04-21T06:33:03;89035.78;;;9.88;66.51
72585;BME280;60618;40.084;32.908;2023-04-21T06:35:30;89035.13;;;10.05;66.56
72585;BME280;60618;40.084;32.908;2023-04-21T06:37:57;89039.50;;;10.08;66.37
72585;BME280;60618;40.084;32.908;2023-04-21T06:40:23;89042.25;;;10.30;64.84
72585;BME280;60618;40.084;32.908;2023-04-21T06:42:50;89045.00;;;10.75;63.99
72585;BME280;60618;40.084;32.908;2023-04-21T06:45:17;89049.84;;;10.93;62.96
72585;BME280;60618;40.084;32.908;2023-04-21T06:47:44;89052.06;;;11.06;62.48
72585;BME280;60618;40.084;32.908;2023-04-21T06:50:11;89045.50;;;11.07;62.16
72585;BME280;60618;40.084;32.908;2023-04-21T06:52:38;89037.72;;;10.64;65.57
72585;BME280;60618;40.084;32.908;2023-04-21T06:55:05;89061.97;;;10.01;66.38
72585;BME280;60618;40.084;32.908;2023-04-21T06:57:33;89044.34;;;10.15;65.26
72585;BME280;60618;40.084;32.908;2023-04-21T07:00:02;89075.56;;;10.09;64.93
72585;BME280;60618;40.084;32.908;2023-04-21T07:02:29;89069.69;;;9.93;65.80
72585;BME280;60618;40.084;32.908;2023-04-21T07:04:56;89073.81;;;9.52;65.80
72585;BME280;60618;40.084;32.908;2023-04-21T07:07:23;89076.22;;;9.44;66.73
72585;BME280;60618;40.084;32.908;2023-04-21T07:09:52;89073.81;;;9.52;67.00
72585;BME280;60618;40.084;32.908;2023-04-21T07:12:19;89078.75;;;9.70;67.59
72585;BME280;60618;40.084;32.908;2023-04-21T07:14:46;89089.94;;;9.85;66.38
72585;BME280;60618;40.084;32.908;2023-04-21T07:17:12;89080.25;;;10.25;66.33
72585;BME280;60618;40.084;32.908;2023-04-21T07:19:39;89074.50;;;10.43;66.54
72585;BME280;60618;40.084;32.908;2023-04-21T07:22:06;89088.31;;;10.64;65.20
72585;BME280;60618;40.084;32.908;2023-04-21T07:24:33;89091.75;;;10.87;63.17
72585;BME280;60618;40.084;32.908;2023-04-21T07:27:00;89090.56;;;11.33;61.85
72585;BME280;60618;40.084;32.908;2023-04-21T07:29:28;89091.03;;;11.37;61.43
72585;BME280;60618;40.084;32.908;2023-04-21T07:31:55;89096.84;;;11.47;62.06
72585;BME280;60618;40.084;32.908;2023-04-21T07:34:21;89096.13;;;11.35;60.80
72585;BME280;60618;40.084;32.908;2023-04-21T07:36:50;89099.50;;;11.63;61.49
72585;BME280;60618;40.084;32.908;2023-04-21T07:39:17;89099.47;;;11.86;58.96
72585;BME280;60618;40.084;32.908;2023-04-21T07:41:44;89093.81;;;12.17;58.89
72585;BME280;60618;40.084;32.908;2023-04-21T07:44:11;89088.09;;;11.91;57.90
72585;BME280;60618;40.084;32.908;2023-04-21T07:46:38;89098.78;;;11.46;59.64
72585;BME280;60618;40.084;32.908;2023-04-21T07:49:05;89094.19;;;11.41;60.07
72585;BME280;60618;40.084;32.908;2023-04-21T07:51:32;89100.94;;;11.76;59.16
72585;BME280;60618;40.084;32.908;2023-04-21T07:53:59;89094.59;;;12.01;58.40
72585;BME280;60618;40.084;32.908;2023-04-21T07:56:35;89097.50;;;12.03;57.85
72585;BME280;60618;40.084;32.908;2023-04-21T07:59:04;89098.53;;;11.83;58.58
72585;BME280;60618;40.084;32.908;2023-04-21T08:01:30;89099.47;;;11.86;58.97
72585;BME280;60618;40.084;32.908;2023-04-21T08:04:02;89099.47;;;11.97;58.16
72585;BME280;60618;40.084;32.908;2023-04-21T08:06:30;89101.94;;;11.61;58.55
72585;BME280;60618;40.084;32.908;2023-04-21T08:08:57;89106.31;;;11.53;59.47
72585;BME280;60618;40.084;32.908;2023-04-21T08:11:24;89108.47;;;11.77;59.89
72585;BME280;60618;40.084;32.908;2023-04-21T08:13:51;89108.41;;;12.11;58.35
72585;BME280;60618;40.084;32.908;2023-04-21T08:16:18;89108.22;;;11.58;58.83
72585;BME280;60618;40.084;32.908;2023-04-21T08:18:45;89100.00;;;11.00;60.92
72585;BME280;60618;40.084;32.908;2023-04-21T08:21:12;89108.97;;;11.03;60.45
72585;BME280;60618;40.084;32.908;2023-04-21T08:23:38;89108.94;;;10.92;61.44
72585;BME280;60618;40.084;32.908;2023-04-21T08:26:06;89103.16;;;11.04;61.89
72585;BME280;60618;40.084;32.908;2023-04-21T08:28:32;89101.94;;;11.39;60.82
72585;BME280;60618;40.084;32.908;2023-04-21T08:30:59;89112.84;;;11.69;59.58
72585;BME280;60618;40.084;32.908;2023-04-21T08:33:26;89106.50;;;12.00;58.91
72585;BME280;60618;40.084;32.908;2023-04-21T08:35:53;89111.03;;;12.28;58.03
72585;BME280;60618;40.084;32.908;2023-04-21T08:38:41;89112.97;;;12.85;56.27
72585;BME280;60618;40.084;32.908;2023-04-21T08:41:08;89099.97;;;13.06;54.67
72585;BME280;60618;40.084;32.908;2023-04-21T08:43:35;89101.81;;;13.22;55.21
72585;BME280;60618;40.084;32.908;2023-04-21T08:46:06;89096.22;;;13.20;54.64
72585;BME280;60618;40.084;32.908;2023-04-21T08:48:37;89098.63;;;12.83;54.19
72585;BME280;60618;40.084;32.908;2023-04-21T08:51:08;89098.91;;;12.27;56.50
72585;BME280;60618;40.084;32.908;2023-04-21T08:53:36;89099.78;;;12.46;56.90
72585;BME280;60618;40.084;32.908;2023-04-21T08:56:03;89100.22;;;13.02;55.22
72585;BME280;60618;40.084;32.908;2023-04-21T08:58:37;89096.31;;;13.45;54.31
72585;BME280;60618;40.084;32.908;2023-04-21T09:01:04;89088.88;;;13.62;52.82
72585;BME280;60618;40.084;32.908;2023-04-21T09:03:31;89075.63;;;13.75;53.80
72585;BME280;60618;40.084;32.908;2023-04-21T09:06:04;89084.88;;;14.23;51.92
72585;BME280;60618;40.084;32.908;2023-04-21T09:08:33;89084.88;;;14.23;51.09
72585;BME280;60618;40.084;32.908;2023-04-21T09:11:00;89083.31;;;14.09;53.63
72585;BME280;60618;40.084;32.908;2023-04-21T09:13:35;89080.75;;;14.22;53.56
72585;BME280;60618;40.084;32.908;2023-04-21T09:16:14;89073.66;;;14.49;52.38
72585;BME280;60618;40.084;32.908;2023-04-21T09:18:41;89078.38;;;14.37;51.30
72585;BME280;60618;40.084;32.908;2023-04-21T09:21:13;89080.63;;;14.33;49.52
72585;BME280;60618;40.084;32.908;2023-04-21T09:23:47;89071.56;;;14.36;48.26
72585;BME280;60618;40.084;32.908;2023-04-21T09:26:15;89062.00;;;14.22;49.70
72585;BME280;60618;40.084;32.908;2023-04-21T09:28:43;89068.88;;;14.36;49.60
72585;BME280;60618;40.084;32.908;2023-04-21T09:31:18;89065.56;;;14.30;49.88
72585;BME280;60618;40.084;32.908;2023-04-21T09:36:26;89055.75;;;14.57;49.68
72585;BME280;60618;40.084;32.908;2023-04-21T09:39:09;89045.97;;;14.60;51.05
72585;BME280;60618;40.084;32.908;2023-04-21T09:41:42;89056.84;;;14.67;51.52
72585;BME280;60618;40.084;32.908;2023-04-21T09:44:09;89056.47;;;14.95;50.65
72585;BME280;60618;40.084;32.908;2023-04-21T09:46:36;89057.97;;;15.10;51.48
72585;BME280;60618;40.084;32.908;2023-04-21T09:49:04;89050.91;;;15.57;49.52
72585;BME280;60618;40.084;32.908;2023-04-21T09:51:31;89056.03;;;15.87;47.65
72585;BME280;60618;40.084;32.908;2023-04-21T09:54:20;89045.00;;;15.46;45.97
72585;BME280;60618;40.084;32.908;2023-04-21T09:56:52;89045.22;;;14.97;47.53
72585;BME280;60618;40.084;32.908;2023-04-21T09:59:25;89041.13;;;14.77;48.27
72585;BME280;60618;40.084;32.908;2023-04-21T10:01:52;89034.34;;;14.33;49.69
72585;BME280;60618;40.084;32.908;2023-04-21T10:04:21;89035.06;;;14.33;51.18
72585;BME280;60618;40.084;32.908;2023-04-21T10:06:50;89033.91;;;13.61;52.15
72585;BME280;60618;40.084;32.908;2023-04-21T10:09:21;89036.63;;;12.54;54.04
72585;BME280;60618;40.084;32.908;2023-04-21T10:11:50;89034.34;;;12.69;54.81
72585;BME280;60618;40.084;32.908;2023-04-21T10:14:17;89028.81;;;12.97;53.53
72585;BME280;60618;40.084;32.908;2023-04-21T10:16:55;89032.66;;;13.02;53.29
72585;BME280;60618;40.084;32.908;2023-04-21T10:19:24;89019.66;;;13.17;51.29
72585;BME280;60618;40.084;32.908;2023-04-21T10:21:54;89018.75;;;13.94;49.54
72585;BME280;60618;40.084;32.908;2023-04-21T10:24:21;89007.16;;;14.47;47.75
72585;BME280;60618;40.084;32.908;2023-04-21T10:26:51;89012.28;;;14.83;45.04
72585;BME280;60618;40.084;32.908;2023-04-21T10:29:41;89020.63;;;14.61;47.01
72585;BME280;60618;40.084;32.908;2023-04-21T10:32:41;89012.03;;;13.81;50.23
72585;BME280;60618;40.084;32.908;2023-04-21T10:35:12;89020.09;;;13.57;48.49
72585;BME280;60618;40.084;32.908;2023-04-21T10:37:40;89018.28;;;13.65;50.67
72585;BME280;60618;40.084;32.908;2023-04-21T10:43:43;89010.06;;;13.03;54.16
72585;BME280;60618;40.084;32.908;2023-04-21T10:46:33;89017.78;;;13.42;50.29
72585;BME280;60618;40.084;32.908;2023-04-21T10:49:08;89019.56;;;13.34;50.62
72585;BME280;60618;40.084;32.908;2023-04-21T10:57:19;89006.31;;;13.72;49.84
72585;BME280;60618;40.084;32.908;2023-04-21T10:59:47;89015.38;;;14.12;47.94
72585;BME280;60618;40.084;32.908;2023-04-21T11:02:15;89011.25;;;14.30;47.27
72585;BME280;60618;40.084;32.908;2023-04-21T11:04:43;89002.41;;;13.73;48.54
72585;BME280;60618;40.084;32.908;2023-04-21T11:07:13;89002.88;;;13.96;48.08
72585;BME280;60618;40.084;32.908;2023-04-21T11:09:41;89002.81;;;14.01;47.38
72585;BME280;60618;40.084;32.908;2023-04-21T11:12:13;89004.38;;;14.34;47.95
72585;BME280;60618;40.084;32.908;2023-04-21T11:14:44;89000.63;;;14.62;46.38
72585;BME280;60618;40.084;32.908;2023-04-21T11:17:13;89001.44;;;15.08;46.52
72585;BME280;60618;40.084;32.908;2023-04-21T11:19:41;88995.94;;;15.00;45.23
72585;BME280;60618;40.084;32.908;2023-04-21T11:22:10;89000.34;;;14.84;45.93
72585;BME280;60618;40.084;32.908;2023-04-21T11:24:44;89004.94;;;15.02;44.57
72585;BME280;60618;40.084;32.908;2023-04-21T11:27:12;88997.94;;;14.62;44.43
72585;BME280;60618;40.084;32.908;2023-04-21T11:29:40;89004.53;;;14.80;45.60
72585;BME280;60618;40.084;32.908;2023-04-21T11:32:08;88999.63;;;14.65;43.16
72585;BME280;60618;40.084;32.908;2023-04-21T11:34:38;88998.59;;;14.68;43.98
72585;BME280;60618;40.084;32.908;2023-04-21T11:37:09;88997.94;;;14.81;43.37
72585;BME280;60618;40.084;32.908;2023-04-21T11:39:40;88994.88;;;14.90;43.53
72585;BME280;60618;40.084;32.908;2023-04-21T11:42:07;88997.81;;;15.05;43.51
72585;BME280;60618;40.084;32.908;2023-04-21T11:44:39;89000.97;;;15.68;44.25
72585;BME280;60618;40.084;32.908;2023-04-21T11:47:17;88985.25;;;16.25;41.86
72585;BME280;60618;40.084;32.908;2023-04-21T11:49:54;88989.69;;;16.35;39.78
72585;BME280;60618;40.084;32.908;2023-04-21T11:52:29;88988.00;;;16.72;40.72
72585;BME280;60618;40.084;32.908;2023-04-21T11:57:32;88982.91;;;16.68;39.91
72585;BME280;60618;40.084;32.908;2023-04-21T12:00:04;88969.47;;;16.68;39.30
72585;BME280;60618;40.084;32.908;2023-04-21T12:02:34;88963.06;;;16.58;39.07
72585;BME280;60618;40.084;32.908;2023-04-21T12:05:04;88970.75;;;15.35;41.39
72585;BME280;60618;40.084;32.908;2023-04-21T12:07:34;88962.56;;;15.86;40.67
72585;BME280;60618;40.084;32.908;2023-04-21T12:10:08;88971.41;;;16.34;39.79
72585;BME280;60618;40.084;32.908;2023-04-21T12:12:37;88956.84;;;16.77;38.13
72585;BME280;60618;40.084;32.908;2023-04-21T12:15:08;88949.63;;;17.13;36.74
72585;BME280;60618;40.084;32.908;2023-04-21T12:17:42;88950.94;;;17.41;36.68
72585;BME280;60618;40.084;32.908;2023-04-21T12:20:10;88948.72;;;17.52;36.60
72585;BME280;60618;40.084;32.908;2023-04-21T12:22:38;88955.94;;;16.95;36.10
72585;BME280;60618;40.084;32.908;2023-04-21T12:25:05;88955.03;;;15.84;39.14
72585;BME280;60618;40.084;32.908;2023-04-21T12:27:32;88948.78;;;15.50;40.55
72585;BME280;60618;40.084;32.908;2023-04-21T12:29:59;88949.34;;;15.16;40.40
72585;BME280;60618;40.084;32.908;2023-04-21T12:32:26;88950.31;;;14.87;40.47
72585;BME280;60618;40.084;32.908;2023-04-21T12:34:53;88959.81;;;15.33;39.62
72585;BME280;60618;40.084;32.908;2023-04-21T12:37:20;88958.25;;;15.83;40.24
72585;BME280;60618;40.084;32.908;2023-04-21T12:39:47;88949.94;;;15.81;38.75
72585;BME280;60618;40.084;32.908;2023-04-21T12:42:14;88955.50;;;15.56;38.02
72585;BME280;60618;40.084;32.908;2023-04-21T12:44:47;88954.91;;;16.03;37.85
72585;BME280;60618;40.084;32.908;2023-04-21T12:47:14;88946.81;;;16.16;37.29
72585;BME280;60618;40.084;32.908;2023-04-21T12:49:41;88946.75;;;14.46;40.37
72585;BME280;60618;40.084;32.908;2023-04-21T12:52:08;88941.91;;;13.64;43.57
72585;BME280;60618;40.084;32.908;2023-04-21T12:54:35;88936.31;;;13.86;44.21
72585;BME280;60618;40.084;32.908;2023-04-21T12:57:02;88939.50;;;14.23;44.40
72585;BME280;60618;40.084;32.908;2023-04-21T12:59:28;88935.88;;;14.90;42.90
72585;BME280;60618;40.084;32.908;2023-04-21T13:01:56;88941.88;;;15.41;40.81
72585;BME280;60618;40.084;32.908;2023-04-21T13:04:23;88929.22;;;15.68;40.61
72585;BME280;60618;40.084;32.908;2023-04-21T13:06:51;88939.28;;;14.90;41.20
72585;BME280;60618;40.084;32.908;2023-04-21T13:09:18;88936.66;;;15.17;41.70
72585;BME280;60618;40.084;32.908;2023-04-21T13:11:45;88947.09;;;15.66;41.00
72585;BME280;60618;40.084;32.908;2023-04-21T13:14:12;88935.69;;;16.12;38.89
72585;BME280;60618;40.084;32.908;2023-04-21T13:16:39;88931.88;;;16.55;38.05